createdAt,value
2017-11-13T00:00:43.357Z,940.86
2017-11-13T00:01:43.338Z,940.82
2017-11-13T00:02:43.331Z,940.78
2017-11-13T00:03:43.303Z,940.77
2017-11-13T00:04:43.289Z,940.8
2017-11-13T00:05:43.268Z,940.89
2017-11-13T00:06:43.253Z,940.93
2017-11-13T00:07:43.233Z,940.96
2017-11-13T00:08:43.215Z,941.01
2017-11-13T00:09:43.198Z,941.04
2017-11-13T00:10:43.179Z,941.05
2017-11-13T00:11:43.165Z,941.15
2017-11-13T00:12:43.146Z,941.17
2017-11-13T00:13:43.126Z,941.19
2017-11-13T00:14:43.108Z,941.21
2017-11-13T00:15:43.092Z,941.26
2017-11-13T00:16:43.075Z,941.22
2017-11-13T00:17:43.077Z,941.16
2017-11-13T00:18:43.039Z,941.18
2017-11-13T00:19:43.022Z,941.2
2017-11-13T00:20:43.005Z,941.22
2017-11-13T00:21:42.990Z,941.28
2017-11-13T00:22:42.969Z,941.29
2017-11-13T00:23:42.952Z,941.33
2017-11-13T00:24:42.934Z,941.34
2017-11-13T00:25:42.917Z,941.37
2017-11-13T00:26:42.898Z,941.42
2017-11-13T00:27:42.881Z,941.41
2017-11-13T00:28:42.864Z,941.45
2017-11-13T00:29:42.845Z,941.44
2017-11-13T00:30:42.827Z,941.45
2017-11-13T00:31:42.810Z,941.53
2017-11-13T00:32:42.792Z,941.52
2017-11-13T00:33:42.777Z,941.49
2017-11-13T00:34:42.758Z,941.52
2017-11-13T00:35:42.740Z,941.52
2017-11-13T00:36:42.722Z,941.6
2017-11-13T00:37:42.705Z,941.59
2017-11-13T00:38:42.687Z,941.63
2017-11-13T00:39:42.669Z,941.66
2017-11-13T00:40:42.652Z,941.71
2017-11-13T00:41:42.639Z,941.74
2017-11-13T00:42:42.618Z,941.75
2017-11-13T00:43:42.618Z,941.79
2017-11-13T00:44:42.581Z,941.82
2017-11-13T00:45:42.564Z,941.83
2017-11-13T00:46:42.546Z,941.79
2017-11-13T00:47:42.548Z,941.84
2017-11-13T00:48:42.511Z,941.79
2017-11-13T00:49:42.493Z,941.8
2017-11-13T00:50:42.476Z,941.86
2017-11-13T00:51:42.458Z,941.87
2017-11-13T00:52:42.441Z,941.87
2017-11-13T00:53:42.423Z,941.82
2017-11-13T00:54:42.418Z,941.8
2017-11-13T00:55:42.386Z,941.74
2017-11-13T00:56:42.370Z,941.7
2017-11-13T00:57:42.353Z,941.69
2017-11-13T00:58:42.335Z,941.63
2017-11-13T00:59:42.317Z,941.68
2017-11-13T01:00:42.300Z,941.75
2017-11-13T01:01:42.281Z,941.84
2017-11-13T01:02:42.264Z,941.87
2017-11-13T01:03:42.245Z,941.88
2017-11-13T01:04:42.229Z,941.91
2017-11-13T01:05:42.211Z,941.93
2017-11-13T01:06:42.193Z,941.99
2017-11-13T01:07:42.183Z,941.95
2017-11-13T01:08:42.162Z,941.94
2017-11-13T01:09:42.140Z,941.87
2017-11-13T01:10:42.124Z,941.78
2017-11-13T01:11:42.107Z,941.67
2017-11-13T01:12:42.088Z,941.63
2017-11-13T01:13:42.070Z,941.59
2017-11-13T01:14:42.055Z,941.63
2017-11-13T01:15:42.036Z,941.68
2017-11-13T01:16:42.017Z,941.67
2017-11-13T01:17:42.000Z,941.67
2017-11-13T01:18:41.982Z,941.67
2017-11-13T01:19:41.966Z,941.64
2017-11-13T01:20:41.948Z,941.69
2017-11-13T01:21:41.933Z,941.71
2017-11-13T01:22:41.913Z,941.72
2017-11-13T01:23:41.895Z,941.76
2017-11-13T01:24:41.876Z,941.84
2017-11-13T01:25:41.861Z,941.85
2017-11-13T01:26:41.843Z,941.9
2017-11-13T01:27:41.823Z,941.93
2017-11-13T01:28:41.807Z,941.88
2017-11-13T01:29:41.790Z,941.85
2017-11-13T01:30:41.773Z,941.85
2017-11-13T01:31:41.755Z,941.84
2017-11-13T01:32:41.737Z,941.83
2017-11-13T01:33:41.722Z,941.81
2017-11-13T01:34:41.706Z,941.8
2017-11-13T01:35:41.701Z,941.8
2017-11-13T01:36:41.667Z,941.87
2017-11-13T01:37:41.657Z,941.8
2017-11-13T01:38:41.633Z,941.82
2017-11-13T01:39:41.636Z,941.87
2017-11-13T01:40:41.601Z,941.95
2017-11-13T01:41:41.586Z,941.99
2017-11-13T01:42:41.560Z,942.03
2017-11-13T01:43:41.545Z,942.04
2017-11-13T01:44:41.525Z,942.01
2017-11-13T01:45:41.507Z,942.03
2017-11-13T01:46:41.491Z,942.06
2017-11-13T01:47:41.476Z,942.11
2017-11-13T01:48:41.455Z,942.09
2017-11-13T01:49:41.437Z,942.17
2017-11-13T01:50:41.420Z,942.11
2017-11-13T01:51:41.408Z,942.15
2017-11-13T01:52:41.386Z,942.07
2017-11-13T01:53:41.367Z,942.07
2017-11-13T01:54:41.353Z,942.04
2017-11-13T01:55:41.337Z,942.06
2017-11-13T01:56:41.323Z,942.02
2017-11-13T01:57:41.298Z,942.03
2017-11-13T01:58:41.281Z,941.96
2017-11-13T01:59:41.263Z,941.92
2017-11-13T02:00:41.246Z,941.88
2017-11-13T02:01:41.236Z,941.85
2017-11-13T02:02:41.210Z,941.87
2017-11-13T02:03:41.191Z,941.89
2017-11-13T02:04:41.174Z,941.9
2017-11-13T02:05:41.157Z,941.92
2017-11-13T02:06:41.145Z,941.98
2017-11-13T02:07:41.122Z,941.99
2017-11-13T02:08:41.105Z,942.03
2017-11-13T02:09:41.087Z,942.01
2017-11-13T02:10:41.071Z,942.03
2017-11-13T02:11:41.050Z,942.03
2017-11-13T02:12:41.048Z,942.05
2017-11-13T02:13:41.015Z,942.08
2017-11-13T02:14:40.998Z,942.04
2017-11-13T02:15:40.980Z,942.09
2017-11-13T02:16:40.962Z,942.12
2017-11-13T02:17:40.945Z,942.17
2017-11-13T02:18:40.937Z,942.16
2017-11-13T02:19:40.909Z,942.19
2017-11-13T02:20:40.892Z,942.22
2017-11-13T02:21:40.874Z,942.23
2017-11-13T02:22:40.859Z,942.25
2017-11-13T02:23:40.838Z,942.3
2017-11-13T02:24:40.822Z,942.31
2017-11-13T02:25:40.804Z,942.32
2017-11-13T02:26:40.791Z,942.35
2017-11-13T02:27:40.800Z,942.36
2017-11-13T02:28:40.751Z,942.36
2017-11-13T02:29:40.732Z,942.41
2017-11-13T02:30:40.715Z,942.41
2017-11-13T02:31:40.723Z,942.42
2017-11-13T02:32:40.681Z,942.43
2017-11-13T02:33:40.662Z,942.48
2017-11-13T02:34:40.645Z,942.5
2017-11-13T02:35:40.638Z,942.5
2017-11-13T02:36:40.609Z,942.54
2017-11-13T02:37:40.593Z,942.53
2017-11-13T02:38:40.590Z,942.58
2017-11-13T02:39:40.557Z,942.59
2017-11-13T02:40:40.538Z,942.64
2017-11-13T02:41:40.520Z,942.64
2017-11-13T02:42:40.503Z,942.62
2017-11-13T02:43:40.486Z,942.65
2017-11-13T02:44:40.481Z,942.63
2017-11-13T02:45:40.451Z,942.64
2017-11-13T02:46:40.434Z,942.66
2017-11-13T02:47:40.414Z,942.68
2017-11-13T02:48:40.397Z,942.72
2017-11-13T02:49:40.379Z,942.74
2017-11-13T02:50:40.363Z,942.75
2017-11-13T02:51:40.345Z,942.73
2017-11-13T02:52:40.346Z,942.73
2017-11-13T02:53:40.313Z,942.7
2017-11-13T02:54:40.292Z,942.73
2017-11-13T02:55:40.278Z,942.71
2017-11-13T02:56:40.256Z,942.71
2017-11-13T02:57:40.238Z,942.75
2017-11-13T02:58:40.220Z,942.75
2017-11-13T02:59:40.202Z,942.76
2017-11-13T03:00:40.184Z,942.79
2017-11-13T03:01:40.168Z,942.82
2017-11-13T03:02:40.153Z,942.83
2017-11-13T03:03:40.137Z,942.87
2017-11-13T03:04:40.134Z,942.91
2017-11-13T03:05:40.097Z,942.88
2017-11-13T03:06:40.079Z,942.89
2017-11-13T03:07:40.063Z,942.93
2017-11-13T03:08:40.056Z,942.98
2017-11-13T03:09:40.027Z,943
2017-11-13T03:10:40.008Z,943
2017-11-13T03:11:39.990Z,943.02
2017-11-13T03:12:39.974Z,943.02
2017-11-13T03:13:39.955Z,942.99
2017-11-13T03:14:39.956Z,943.02
2017-11-13T03:15:39.921Z,943.06
2017-11-13T03:16:39.903Z,943.11
2017-11-13T03:17:39.884Z,943.11
2017-11-13T03:18:39.867Z,943.13
2017-11-13T03:19:39.851Z,943.16
2017-11-13T03:20:39.832Z,943.24
2017-11-13T03:21:39.814Z,943.23
2017-11-13T03:22:39.797Z,943.31
2017-11-13T03:23:39.782Z,943.43
2017-11-13T03:24:39.801Z,943.4
2017-11-13T03:25:39.746Z,943.42
2017-11-13T03:26:39.755Z,943.47
2017-11-13T03:27:39.710Z,943.47
2017-11-13T03:28:39.694Z,943.49
2017-11-13T03:29:39.675Z,943.53
2017-11-13T03:30:39.661Z,943.53
2017-11-13T03:31:39.650Z,943.54
2017-11-13T03:32:39.625Z,943.53
2017-11-13T03:33:39.615Z,943.53
2017-11-13T03:34:39.591Z,943.58
2017-11-13T03:35:39.570Z,943.55
2017-11-13T03:36:39.553Z,943.51
2017-11-13T03:37:39.537Z,943.54
2017-11-13T03:38:39.519Z,943.52
2017-11-13T03:39:39.500Z,943.58
2017-11-13T03:40:39.484Z,943.62
2017-11-13T03:41:39.472Z,943.69
2017-11-13T03:42:39.450Z,943.72
2017-11-13T03:43:39.433Z,943.72
2017-11-13T03:44:39.414Z,943.71
2017-11-13T03:45:39.397Z,943.67
2017-11-13T03:46:39.378Z,943.69
2017-11-13T03:47:39.370Z,943.72
2017-11-13T03:48:39.343Z,943.74
2017-11-13T03:49:39.371Z,943.8
2017-11-13T03:50:39.309Z,943.8
2017-11-13T03:51:39.291Z,943.8
2017-11-13T03:52:39.274Z,943.82
2017-11-13T03:53:39.275Z,943.82
2017-11-13T03:54:39.237Z,943.8
2017-11-13T03:55:39.222Z,943.81
2017-11-13T03:56:39.203Z,943.82
2017-11-13T03:57:39.186Z,943.85
2017-11-13T03:58:39.169Z,943.84
2017-11-13T03:59:39.150Z,943.89
2017-11-13T04:00:39.132Z,943.94
2017-11-13T04:01:39.116Z,943.96
2017-11-13T04:02:39.110Z,943.93
2017-11-13T04:03:39.080Z,943.95
2017-11-13T04:04:39.064Z,943.94
2017-11-13T04:05:39.045Z,944
2017-11-13T04:06:39.029Z,944
2017-11-13T04:07:39.010Z,944.01
2017-11-13T04:08:38.993Z,944.01
2017-11-13T04:09:38.973Z,944.08
2017-11-13T04:10:38.964Z,944.04
2017-11-13T04:11:38.946Z,944.04
2017-11-13T04:12:38.921Z,944.06
2017-11-13T04:13:38.904Z,944.07
2017-11-13T04:14:38.888Z,944.07
2017-11-13T04:15:38.870Z,944.13
2017-11-13T04:16:38.851Z,944.18
2017-11-13T04:17:38.835Z,944.21
2017-11-13T04:18:38.817Z,944.3
2017-11-13T04:19:38.799Z,944.33
2017-11-13T04:20:38.780Z,944.36
2017-11-13T04:21:38.763Z,944.38
2017-11-13T04:22:38.764Z,944.34
2017-11-13T04:23:38.728Z,944.37
2017-11-13T04:24:38.710Z,944.38
2017-11-13T04:25:38.693Z,944.39
2017-11-13T04:26:38.676Z,944.42
2017-11-13T04:27:38.658Z,944.49
2017-11-13T04:28:38.641Z,944.55
2017-11-13T04:29:38.623Z,944.58
2017-11-13T04:30:38.604Z,944.58
2017-11-13T04:31:38.587Z,944.59
2017-11-13T04:32:38.578Z,944.64
2017-11-13T04:33:38.551Z,944.65
2017-11-13T04:34:38.533Z,944.67
2017-11-13T04:35:38.519Z,944.72
2017-11-13T04:36:38.509Z,944.77
2017-11-13T04:37:38.526Z,944.8
2017-11-13T04:38:38.468Z,944.81
2017-11-13T04:39:38.446Z,944.83
2017-11-13T04:40:38.430Z,944.87
2017-11-13T04:41:38.411Z,944.91
2017-11-13T04:42:38.395Z,944.95
2017-11-13T04:43:38.376Z,944.96
2017-11-13T04:44:38.357Z,944.94
2017-11-13T04:45:38.342Z,944.92
2017-11-13T04:46:38.324Z,944.92
2017-11-13T04:47:38.309Z,944.92
2017-11-13T04:48:38.288Z,944.87
2017-11-13T04:49:38.271Z,944.86
2017-11-13T04:50:38.253Z,944.85
2017-11-13T04:51:38.237Z,944.86
2017-11-13T04:52:38.216Z,944.84
2017-11-13T04:53:38.202Z,944.8
2017-11-13T04:54:38.184Z,944.84
2017-11-13T04:55:38.165Z,944.84
2017-11-13T04:56:38.152Z,944.81
2017-11-13T04:57:38.132Z,944.79
2017-11-13T04:58:38.125Z,944.82
2017-11-13T04:59:38.096Z,944.73
2017-11-13T05:00:38.079Z,944.76
2017-11-13T05:01:38.060Z,944.73
2017-11-13T05:02:38.042Z,944.71
2017-11-13T05:03:38.027Z,944.68
2017-11-13T05:04:38.009Z,944.68
2017-11-13T05:05:37.991Z,944.72
2017-11-13T05:06:37.972Z,944.73
2017-11-13T05:07:37.966Z,944.82
2017-11-13T05:08:37.938Z,944.81
2017-11-13T05:09:37.931Z,944.85
2017-11-13T05:10:37.903Z,944.87
2017-11-13T05:11:37.885Z,944.84
2017-11-13T05:12:37.869Z,944.85
2017-11-13T05:13:37.850Z,944.88
2017-11-13T05:14:37.833Z,944.82
2017-11-13T05:15:37.821Z,944.89
2017-11-13T05:16:37.799Z,944.91
2017-11-13T05:17:37.786Z,944.93
2017-11-13T05:18:37.762Z,945
2017-11-13T05:19:37.745Z,945.06
2017-11-13T05:20:37.728Z,945.08
2017-11-13T05:21:37.711Z,945.13
2017-11-13T05:22:37.702Z,945.22
2017-11-13T05:23:37.680Z,945.24
2017-11-13T05:24:37.656Z,945.27
2017-11-13T05:25:37.641Z,945.29
2017-11-13T05:26:37.621Z,945.3
2017-11-13T05:27:37.623Z,945.32
2017-11-13T05:28:37.588Z,945.35
2017-11-13T05:29:37.568Z,945.35
2017-11-13T05:30:37.553Z,945.4
2017-11-13T05:31:37.536Z,945.37
2017-11-13T05:32:37.515Z,945.41
2017-11-13T05:33:37.500Z,945.38
2017-11-13T05:34:37.483Z,945.41
2017-11-13T05:35:37.467Z,945.38
2017-11-13T05:36:37.448Z,945.38
2017-11-13T05:37:37.429Z,945.4
2017-11-13T05:38:37.416Z,945.42
2017-11-13T05:39:37.395Z,945.48
2017-11-13T05:40:37.376Z,945.52
2017-11-13T05:41:37.360Z,945.54
2017-11-13T05:42:37.342Z,945.51
2017-11-13T05:43:37.324Z,945.51
2017-11-13T05:44:37.307Z,945.51
2017-11-13T05:45:37.290Z,945.47
2017-11-13T05:46:37.272Z,945.5
2017-11-13T05:47:37.255Z,945.47
2017-11-13T05:48:37.240Z,945.47
2017-11-13T05:49:37.222Z,945.51
2017-11-13T05:50:37.204Z,945.44
2017-11-13T05:51:37.186Z,945.47
2017-11-13T05:52:37.168Z,945.5
2017-11-13T05:53:37.175Z,945.55
2017-11-13T05:54:37.134Z,945.54
2017-11-13T05:55:37.133Z,945.58
2017-11-13T05:56:37.100Z,945.58
2017-11-13T05:57:37.086Z,945.62
2017-11-13T05:58:37.065Z,945.63
2017-11-13T05:59:37.047Z,945.65
2017-11-13T06:00:37.029Z,945.63
2017-11-13T06:01:37.011Z,945.62
2017-11-13T06:02:36.994Z,945.65
2017-11-13T06:03:36.976Z,945.69
2017-11-13T06:04:36.961Z,945.67
2017-11-13T06:05:36.942Z,945.74
2017-11-13T06:06:36.926Z,945.75
2017-11-13T06:07:36.911Z,945.79
2017-11-13T06:08:36.905Z,945.83
2017-11-13T06:09:36.875Z,945.79
2017-11-13T06:10:36.857Z,945.85
2017-11-13T06:11:36.840Z,945.79
2017-11-13T06:12:36.822Z,945.83
2017-11-13T06:13:36.806Z,945.86
2017-11-13T06:14:36.787Z,945.84
2017-11-13T06:15:36.770Z,945.81
2017-11-13T06:16:36.752Z,945.75
2017-11-13T06:17:36.735Z,945.74
2017-11-13T06:18:36.723Z,945.72
2017-11-13T06:19:36.710Z,945.75
2017-11-13T06:20:36.684Z,945.7
2017-11-13T06:21:36.665Z,945.79
2017-11-13T06:22:36.650Z,945.78
2017-11-13T06:23:36.633Z,945.81
2017-11-13T06:24:36.614Z,945.83
2017-11-13T06:25:36.601Z,945.86
2017-11-13T06:26:36.587Z,945.84
2017-11-13T06:27:36.563Z,945.81
2017-11-13T06:28:36.549Z,945.89
2017-11-13T06:29:36.528Z,945.93
2017-11-13T06:30:36.519Z,945.93
2017-11-13T06:31:36.493Z,945.95
2017-11-13T06:32:36.477Z,945.97
2017-11-13T06:33:36.459Z,946.01
2017-11-13T06:34:36.455Z,946.01
2017-11-13T06:35:36.424Z,945.97
2017-11-13T06:36:36.411Z,946.02
2017-11-13T06:37:36.391Z,946.03
2017-11-13T06:38:36.373Z,946.05
2017-11-13T06:39:36.356Z,946.05
2017-11-13T06:40:36.339Z,946.02
2017-11-13T06:41:36.320Z,946.02
2017-11-13T06:42:36.304Z,946.04
2017-11-13T06:43:36.302Z,946.01
2017-11-13T06:44:36.269Z,946.05
2017-11-13T06:45:36.252Z,946.05
2017-11-13T06:46:36.234Z,946.11
2017-11-13T06:47:36.217Z,946.11
2017-11-13T06:48:36.199Z,946.12
2017-11-13T06:49:36.183Z,946.14
2017-11-13T06:50:36.165Z,946.17
2017-11-13T06:51:36.148Z,946.2
2017-11-13T06:52:36.130Z,946.21
2017-11-13T06:53:36.113Z,946.25
2017-11-13T06:54:36.095Z,946.3
2017-11-13T06:55:36.079Z,946.33
2017-11-13T06:56:36.061Z,946.41
2017-11-13T06:57:36.045Z,946.49
2017-11-13T06:58:36.027Z,946.57
2017-11-13T06:59:36.025Z,946.64
2017-11-13T07:00:36.001Z,946.66
2017-11-13T07:01:35.978Z,946.7
2017-11-13T07:02:35.958Z,946.66
2017-11-13T07:03:35.939Z,946.67
2017-11-13T07:04:35.923Z,946.67
2017-11-13T07:05:35.906Z,946.65
2017-11-13T07:06:35.888Z,946.63
2017-11-13T07:07:35.871Z,946.68
2017-11-13T07:08:35.855Z,946.66
2017-11-13T07:09:35.836Z,946.64
2017-11-13T07:10:35.819Z,946.71
2017-11-13T07:11:35.801Z,946.73
2017-11-13T07:12:35.804Z,946.75
2017-11-13T07:13:35.767Z,946.76
2017-11-13T07:14:35.748Z,946.78
2017-11-13T07:15:35.732Z,946.82
2017-11-13T07:16:35.718Z,946.83
2017-11-13T07:17:35.698Z,946.84
2017-11-13T07:18:35.685Z,946.83
2017-11-13T07:19:35.665Z,946.89
2017-11-13T07:20:35.645Z,946.86
2017-11-13T07:21:35.629Z,946.91
2017-11-13T07:22:35.611Z,946.91
2017-11-13T07:23:35.595Z,946.89
2017-11-13T07:24:35.577Z,946.89
2017-11-13T07:25:35.560Z,946.91
2017-11-13T07:26:35.543Z,946.91
2017-11-13T07:27:35.528Z,946.94
2017-11-13T07:28:35.510Z,946.97
2017-11-13T07:29:35.492Z,947
2017-11-13T07:30:35.475Z,946.97
2017-11-13T07:31:35.457Z,946.96
2017-11-13T07:32:35.441Z,947
2017-11-13T07:33:35.422Z,947.04
2017-11-13T07:34:35.408Z,947.12
2017-11-13T07:35:35.391Z,947.11
2017-11-13T07:36:35.390Z,947.17
2017-11-13T07:37:35.366Z,947.19
2017-11-13T07:38:35.338Z,947.19
2017-11-13T07:39:35.321Z,947.24
2017-11-13T07:40:35.303Z,947.22
2017-11-13T07:41:35.286Z,947.26
2017-11-13T07:42:35.270Z,947.27
2017-11-13T07:43:35.253Z,947.27
2017-11-13T07:44:35.237Z,947.3
2017-11-13T07:45:35.220Z,947.33
2017-11-13T07:46:35.203Z,947.3
2017-11-13T07:47:35.185Z,947.32
2017-11-13T07:48:35.169Z,947.33
2017-11-13T07:49:35.153Z,947.31
2017-11-13T07:50:35.138Z,947.31
2017-11-13T07:51:35.125Z,947.25
2017-11-13T07:52:35.100Z,947.19
2017-11-13T07:53:35.086Z,947.21
2017-11-13T07:54:35.067Z,947.16
2017-11-13T07:55:35.049Z,947.16
2017-11-13T07:56:35.034Z,947.17
2017-11-13T07:57:35.017Z,947.2
2017-11-13T07:58:35.012Z,947.19
2017-11-13T07:59:34.984Z,947.18
2017-11-13T08:00:34.968Z,947.23
2017-11-13T08:01:34.950Z,947.27
2017-11-13T08:02:34.933Z,947.27
2017-11-13T08:03:34.915Z,947.3
2017-11-13T08:04:34.899Z,947.34
2017-11-13T08:05:34.883Z,947.35
2017-11-13T08:06:34.865Z,947.38
2017-11-13T08:07:34.849Z,947.38
2017-11-13T08:08:34.832Z,947.41
2017-11-13T08:09:34.813Z,947.41
2017-11-13T08:10:34.801Z,947.39
2017-11-13T08:11:34.783Z,947.47
2017-11-13T08:12:34.765Z,947.48
2017-11-13T08:13:34.748Z,947.45
2017-11-13T08:14:34.733Z,947.49
2017-11-13T08:15:34.721Z,947.5
2017-11-13T08:16:34.698Z,947.52
2017-11-13T08:17:34.681Z,947.56
2017-11-13T08:18:34.666Z,947.59
2017-11-13T08:19:34.649Z,947.62
2017-11-13T08:20:34.634Z,947.65
2017-11-13T08:21:34.615Z,947.63
2017-11-13T08:22:34.599Z,947.62
2017-11-13T08:23:34.581Z,947.65
2017-11-13T08:24:34.564Z,947.67
2017-11-13T08:25:34.548Z,947.67
2017-11-13T08:26:34.533Z,947.67
2017-11-13T08:27:34.513Z,947.73
2017-11-13T08:28:34.498Z,947.76
2017-11-13T08:29:34.480Z,947.77
2017-11-13T08:30:34.469Z,947.8
2017-11-13T08:31:34.446Z,947.79
2017-11-13T08:32:34.436Z,947.86
2017-11-13T08:33:34.412Z,947.84
2017-11-13T08:34:34.422Z,947.88
2017-11-13T08:35:34.381Z,947.89
2017-11-13T08:36:34.366Z,947.96
2017-11-13T08:37:34.346Z,947.96
2017-11-13T08:38:34.329Z,947.98
2017-11-13T08:39:34.313Z,948
2017-11-13T08:40:34.301Z,948
2017-11-13T08:41:34.279Z,948.06
2017-11-13T08:42:34.262Z,948.07
2017-11-13T08:43:34.246Z,948.05
2017-11-13T08:44:34.230Z,948.09
2017-11-13T08:45:34.212Z,948.11
2017-11-13T08:46:34.196Z,948.12
2017-11-13T08:47:34.179Z,948.21
2017-11-13T08:48:34.169Z,948.19
2017-11-13T08:49:34.145Z,948.22
2017-11-13T08:50:34.128Z,948.26
2017-11-13T08:51:34.112Z,948.28
2017-11-13T08:52:34.097Z,948.24
2017-11-13T08:53:34.079Z,948.36
2017-11-13T08:54:34.062Z,948.3
2017-11-13T08:55:34.069Z,948.31
2017-11-13T08:56:34.031Z,948.33
2017-11-13T08:57:34.010Z,948.32
2017-11-13T08:58:33.996Z,948.33
2017-11-13T08:59:33.978Z,948.28
2017-11-13T09:00:33.960Z,948.3
2017-11-13T09:01:33.944Z,948.3
2017-11-13T09:02:33.928Z,948.28
2017-11-13T09:03:33.911Z,948.29
2017-11-13T09:04:33.893Z,948.31
2017-11-13T09:05:33.878Z,948.32
2017-11-13T09:06:33.862Z,948.28
2017-11-13T09:07:33.845Z,948.26
2017-11-13T09:08:33.828Z,948.27
2017-11-13T09:09:33.810Z,948.31
2017-11-13T09:10:33.809Z,948.31
2017-11-13T09:11:33.777Z,948.32
2017-11-13T09:12:33.761Z,948.32
2017-11-13T09:13:33.744Z,948.36
2017-11-13T09:14:33.729Z,948.4
2017-11-13T09:15:33.716Z,948.38
2017-11-13T09:16:33.694Z,948.45
2017-11-13T09:17:33.677Z,948.45
2017-11-13T09:18:33.662Z,948.5
2017-11-13T09:19:33.645Z,948.52
2017-11-13T09:20:33.644Z,948.56
2017-11-13T09:21:33.612Z,948.56
2017-11-13T09:22:33.797Z,948.62
2017-11-13T09:23:33.579Z,948.61
2017-11-13T09:24:33.561Z,948.59
2017-11-13T09:25:33.548Z,948.58
2017-11-13T09:26:33.540Z,948.58
2017-11-13T09:27:33.513Z,948.55
2017-11-13T09:28:33.497Z,948.55
2017-11-13T09:29:33.479Z,948.52
2017-11-13T09:30:33.465Z,948.51
2017-11-13T09:31:33.449Z,948.54
2017-11-13T09:32:33.440Z,948.55
2017-11-13T09:33:33.416Z,948.6
2017-11-13T09:34:33.401Z,948.6
2017-11-13T09:35:33.385Z,948.65
2017-11-13T09:36:33.383Z,948.63
2017-11-13T09:37:33.364Z,948.65
2017-11-13T09:38:33.337Z,948.7
2017-11-13T09:39:33.320Z,948.73
2017-11-13T09:40:33.304Z,948.8
2017-11-13T09:41:33.288Z,948.79
2017-11-13T09:42:33.274Z,948.85
2017-11-13T09:43:33.257Z,948.87
2017-11-13T09:44:33.242Z,948.93
2017-11-13T09:45:33.226Z,948.92
2017-11-13T09:46:33.209Z,948.9
2017-11-13T09:47:33.196Z,948.95
2017-11-13T09:48:33.181Z,948.92
2017-11-13T09:49:33.162Z,948.89
2017-11-13T09:50:33.149Z,948.96
2017-11-13T09:51:33.131Z,948.97
2017-11-13T09:52:33.120Z,948.99
2017-11-13T09:53:33.100Z,948.97
2017-11-13T09:54:33.084Z,948.97
2017-11-13T09:55:33.073Z,948.98
2017-11-13T09:56:33.059Z,948.98
2017-11-13T09:57:33.040Z,948.99
2017-11-13T09:58:33.020Z,948.97
2017-11-13T09:59:33.004Z,949
2017-11-13T10:00:32.988Z,948.98
2017-11-13T10:01:32.974Z,948.97
2017-11-13T10:02:32.967Z,948.97
2017-11-13T10:03:32.942Z,949
2017-11-13T10:04:32.926Z,948.99
2017-11-13T10:05:32.910Z,948.97
2017-11-13T10:06:32.895Z,949.01
2017-11-13T10:07:32.885Z,949.02
2017-11-13T10:08:32.864Z,949.02
2017-11-13T10:09:32.869Z,949.07
2017-11-13T10:10:32.831Z,949.07
2017-11-13T10:11:32.817Z,949.07
2017-11-13T10:12:32.801Z,949.08
2017-11-13T10:13:32.783Z,949.09
2017-11-13T10:14:32.769Z,949.09
2017-11-13T10:15:32.753Z,949.09
2017-11-13T10:16:32.740Z,949.16
2017-11-13T10:17:32.721Z,949.13
2017-11-13T10:18:32.706Z,949.18
2017-11-13T10:19:32.691Z,949.19
2017-11-13T10:20:32.676Z,949.24
2017-11-13T10:21:32.659Z,949.27
2017-11-13T10:22:32.643Z,949.29
2017-11-13T10:23:32.627Z,949.34
2017-11-13T10:24:32.618Z,949.35
2017-11-13T10:25:32.595Z,949.3
2017-11-13T10:26:32.579Z,949.32
2017-11-13T10:27:32.580Z,949.35
2017-11-13T10:28:32.547Z,949.34
2017-11-13T10:29:32.531Z,949.31
2017-11-13T10:30:32.539Z,949.36
2017-11-13T10:31:32.510Z,949.31
2017-11-13T10:32:32.484Z,949.29
2017-11-13T10:33:32.483Z,949.31
2017-11-13T10:34:32.453Z,949.31
2017-11-13T10:35:32.436Z,949.34
2017-11-13T10:36:32.422Z,949.36
2017-11-13T10:37:32.406Z,949.38
2017-11-13T10:38:32.402Z,949.36
2017-11-13T10:39:32.380Z,949.37
2017-11-13T10:40:32.356Z,949.42
2017-11-13T10:41:32.342Z,949.41
2017-11-13T10:42:32.328Z,949.44
2017-11-13T10:43:32.311Z,949.45
2017-11-13T10:44:32.296Z,949.42
2017-11-13T10:45:32.280Z,949.48
2017-11-13T10:46:32.260Z,949.41
2017-11-13T10:47:32.258Z,949.41
2017-11-13T10:48:32.232Z,949.45
2017-11-13T10:49:32.216Z,949.41
2017-11-13T10:50:32.199Z,949.47
2017-11-13T10:51:32.185Z,949.5
2017-11-13T10:52:32.168Z,949.47
2017-11-13T10:53:32.151Z,949.5
2017-11-13T10:54:32.136Z,949.51
2017-11-13T10:55:32.129Z,949.56
2017-11-13T10:56:32.104Z,949.56
2017-11-13T10:57:32.087Z,949.52
2017-11-13T10:58:32.072Z,949.56
2017-11-13T10:59:32.057Z,949.57
2017-11-13T11:00:32.041Z,949.53
2017-11-13T11:01:32.024Z,949.49
2017-11-13T11:02:32.009Z,949.46
2017-11-13T11:03:31.993Z,949.45
2017-11-13T11:04:31.976Z,949.46
2017-11-13T11:05:31.960Z,949.48
2017-11-13T11:06:31.944Z,949.48
2017-11-13T11:07:31.931Z,949.44
2017-11-13T11:08:31.911Z,949.49
2017-11-13T11:09:31.896Z,949.52
2017-11-13T11:10:31.880Z,949.55
2017-11-13T11:11:31.865Z,949.54
2017-11-13T11:12:31.849Z,949.56
2017-11-13T11:13:31.832Z,949.61
2017-11-13T11:14:31.819Z,949.61
2017-11-13T11:15:31.811Z,949.62
2017-11-13T11:16:31.786Z,949.64
2017-11-13T11:17:31.769Z,949.65
2017-11-13T11:18:31.753Z,949.64
2017-11-13T11:19:31.737Z,949.67
2017-11-13T11:20:31.722Z,949.69
2017-11-13T11:21:31.712Z,949.7
2017-11-13T11:22:31.692Z,949.76
2017-11-13T11:23:31.688Z,949.73
2017-11-13T11:24:31.661Z,949.75
2017-11-13T11:25:31.649Z,949.8
2017-11-13T11:26:31.630Z,949.79
2017-11-13T11:27:31.616Z,949.81
2017-11-13T11:28:31.602Z,949.82
2017-11-13T11:29:31.586Z,949.84
2017-11-13T11:30:31.569Z,949.83
2017-11-13T11:31:31.555Z,949.84
2017-11-13T11:32:31.540Z,949.77
2017-11-13T11:33:31.526Z,949.83
2017-11-13T11:34:31.509Z,949.79
2017-11-13T11:35:31.497Z,949.79
2017-11-13T11:36:31.479Z,949.78
2017-11-13T11:37:31.467Z,949.77
2017-11-13T11:38:31.450Z,949.79
2017-11-13T11:39:31.438Z,949.75
2017-11-13T11:40:31.420Z,949.7
2017-11-13T11:41:31.404Z,949.73
2017-11-13T11:42:31.394Z,949.71
2017-11-13T11:43:31.374Z,949.7
2017-11-13T11:44:31.362Z,949.75
2017-11-13T11:45:31.344Z,949.74
2017-11-13T11:46:31.329Z,949.77
2017-11-13T11:47:31.317Z,949.77
2017-11-13T11:48:31.300Z,949.8
2017-11-13T11:49:31.286Z,949.8
2017-11-13T11:50:31.271Z,949.79
2017-11-13T11:51:31.257Z,949.79
2017-11-13T11:52:31.249Z,949.79
2017-11-13T11:53:31.228Z,949.77
2017-11-13T11:54:31.213Z,949.79
2017-11-13T11:55:31.198Z,949.73
2017-11-13T11:56:31.183Z,949.81
2017-11-13T11:57:31.170Z,949.79
2017-11-13T11:58:31.179Z,949.82
2017-11-13T11:59:31.144Z,949.82
2017-11-13T12:00:31.124Z,949.83
2017-11-13T12:01:31.110Z,949.82
2017-11-13T12:02:31.097Z,949.84
2017-11-13T12:03:31.081Z,949.83
2017-11-13T12:04:31.067Z,949.86
2017-11-13T12:05:31.051Z,949.87
2017-11-13T12:06:31.039Z,949.86
2017-11-13T12:07:31.023Z,949.88
2017-11-13T12:08:31.013Z,949.83
2017-11-13T12:09:30.996Z,949.83
2017-11-13T12:10:30.980Z,949.82
2017-11-13T12:11:30.967Z,949.8
2017-11-13T12:12:30.952Z,949.81
2017-11-13T12:13:30.937Z,949.78
2017-11-13T12:14:30.922Z,949.76
2017-11-13T12:15:30.908Z,949.78
2017-11-13T12:16:30.892Z,949.7
2017-11-13T12:17:30.878Z,949.67
2017-11-13T12:18:30.872Z,949.7
2017-11-13T12:19:30.849Z,949.64
2017-11-13T12:20:30.836Z,949.64
2017-11-13T12:21:30.826Z,949.68
2017-11-13T12:22:30.804Z,949.62
2017-11-13T12:23:30.790Z,949.7
2017-11-13T12:24:30.775Z,949.66
2017-11-13T12:25:30.760Z,949.67
2017-11-13T12:26:30.746Z,949.71
2017-11-13T12:27:30.732Z,949.73
2017-11-13T12:28:30.716Z,949.77
2017-11-13T12:29:30.701Z,949.76
2017-11-13T12:30:30.686Z,949.81
2017-11-13T12:31:30.672Z,949.8